Time;durP1;ratioP1;P1;durP2;ratioP2;P2;SDS_P1;SDS_P2;PMS_P1;PMS_P2;Temp;Humidity;BMP_temperature;BMP_pressure;BME280_temperature;BME280_humidity;BME280_pressure;Samples;Min_cycle;Max_cycle;Signal;HPM_P1;HPM_P2
2023/02/10 00:01:18;;;;;;;63.17;32.85;;;;;;;2.38;100.00;103125.75;10098110;28;20043;-65
2023/02/10 00:06:16;;;;;;;52.22;32.97;;;;;;;2.44;100.00;103140.31;10111367;28;20082;-65
2023/02/10 00:11:12;;;;;;;49.83;31.98;;;;;;;2.49;100.00;103137.81;10115679;28;20051;-65
2023/02/10 00:16:12;;;;;;;47.10;28.67;;;;;;;2.43;100.00;103144.03;10106814;28;20051;-65
2023/02/10 00:21:12;;;;;;;52.65;29.95;;;;;;;2.47;100.00;103156.09;10102814;28;20039;-64
2023/02/10 00:26:12;;;;;;;53.20;31.33;;;;;;;2.47;100.00;103134.50;10110118;28;20126;-65
2023/02/10 00:31:11;;;;;;;58.65;31.08;;;;;;;2.49;100.00;103133.25;10110072;28;20133;-65
2023/02/10 00:36:10;;;;;;;50.22;32.47;;;;;;;2.56;100.00;103127.03;10112886;28;20082;-64
2023/02/10 00:41:08;;;;;;;58.72;32.00;;;;;;;2.51;100.00;103124.94;10114156;28;20404;-65
2023/02/10 00:46:04;;;;;;;61.42;34.40;;;;;;;2.53;100.00;103139.09;10108618;28;20149;-66
2023/02/10 00:51:02;;;;;;;52.20;34.05;;;;;;;2.53;100.00;103139.09;10103896;28;20043;-66
2023/02/10 00:55:58;;;;;;;55.55;33.83;;;;;;;2.55;100.00;103141.56;10090424;28;20063;-66
2023/02/10 01:00:55;;;;;;;52.72;33.08;;;;;;;2.59;100.00;103154.47;10102120;28;20142;-66
2023/02/10 01:05:51;;;;;;;50.05;31.83;;;;;;;2.60;100.00;103144.47;10110341;28;20070;-66
2023/02/10 01:10:48;;;;;;;59.42;35.75;;;;;;;2.56;100.00;103154.88;10105329;28;20405;-66
2023/02/10 01:15:46;;;;;;;49.45;31.20;;;;;;;2.66;100.00;103155.31;10107455;28;20047;-66
2023/02/10 01:20:43;;;;;;;47.78;28.60;;;;;;;2.60;100.00;103156.13;10111834;28;20050;-66
2023/02/10 01:25:40;;;;;;;50.00;32.70;;;;;;;2.64;100.00;103151.97;10107849;28;20133;-65
2023/02/10 01:30:36;;;;;;;48.65;29.90;;;;;;;2.69;100.00;103164.84;10106836;28;20039;-65
2023/02/10 01:35:38;;;;;;;52.60;30.92;;;;;;;2.65;100.00;103153.66;10111532;28;20065;-65
2023/02/10 01:40:34;;;;;;;64.47;32.88;;;;;;;2.70;100.00;103145.75;10101087;28;20130;-66
2023/02/10 01:45:37;;;;;;;48.13;31.88;;;;;;;2.68;100.00;103141.59;10112386;28;20125;-66
2023/02/10 01:50:51;;;;;;;48.28;30.58;;;;;;;2.65;100.00;103145.53;10112072;28;20501;-65
2023/02/10 01:55:51;;;;;;;51.25;30.55;;;;;;;2.61;100.00;103141.59;10118359;28;20133;-65
2023/02/10 02:00:48;;;;;;;52.92;30.35;;;;;;;2.66;100.00;103135.56;10117319;28;20051;-65
2023/02/10 02:05:44;;;;;;;42.45;29.40;;;;;;;2.55;100.00;103137.00;10117155;28;20044;-66
2023/02/10 02:11:20;;;;;;;47.78;30.20;;;;;;;2.56;100.00;103132.44;10105821;28;20051;-65
2023/02/10 02:16:37;;;;;;;49.67;32.25;;;;;;;2.56;100.00;103133.25;10122911;28;20054;-66
2023/02/10 02:22:01;;;;;;;55.05;35.17;;;;;;;2.48;100.00;103137.00;10113119;28;20043;-65
2023/02/10 02:27:37;;;;;;;48.88;30.38;;;;;;;2.53;100.00;103139.91;10104859;28;20489;-65
2023/02/10 02:32:39;;;;;;;48.67;28.30;;;;;;;2.56;100.00;103144.06;10111003;28;20524;-65
2023/02/10 02:37:40;;;;;;;48.00;28.63;;;;;;;2.58;100.00;103136.59;10106865;28;20138;-65
2023/02/10 02:42:37;;;;;;;55.15;31.60;;;;;;;2.56;100.00;103138.66;10111717;28;20074;-65
2023/02/10 02:47:48;;;;;;;42.60;27.95;;;;;;;2.55;100.00;103147.78;10115877;28;20062;-65
2023/02/10 02:52:56;;;;;;;47.55;29.17;;;;;;;2.54;100.00;103146.13;10112125;28;20216;-65
2023/02/10 02:58:08;;;;;;;43.47;27.38;;;;;;;2.51;100.00;103135.75;10115279;28;20655;-65
2023/02/10 03:03:06;;;;;;;46.00;29.25;;;;;;;2.44;100.00;103134.91;10098272;28;20046;-66
2023/02/10 03:08:02;;;;;;;50.50;29.48;;;;;;;2.45;100.00;103131.97;10103913;28;20464;-66
2023/02/10 03:12:59;;;;;;;48.35;30.52;;;;;;;2.44;100.00;103130.34;10102750;28;20055;-66
2023/02/10 03:17:56;;;;;;;49.15;32.67;;;;;;;2.41;100.00;103129.91;10111500;28;20134;-66
2023/02/10 03:22:52;;;;;;;47.90;30.45;;;;;;;2.34;100.00;103129.88;10096733;28;20081;-66
2023/02/10 03:27:49;;;;;;;46.92;29.90;;;;;;;2.28;100.00;103131.53;10094323;28;20151;-66
2023/02/10 03:32:46;;;;;;;46.00;29.80;;;;;;;2.26;100.00;103128.19;10108758;28;20489;-64
2023/02/10 03:37:42;;;;;;;44.72;31.15;;;;;;;2.27;100.00;103135.25;10094376;28;20043;-65
2023/02/10 03:42:39;;;;;;;47.05;32.78;;;;;;;2.28;100.00;103145.03;10107644;28;20404;-65
2023/02/10 03:47:35;;;;;;;47.20;32.85;;;;;;;2.23;100.00;103154.78;10116388;28;20557;-66
2023/02/10 03:52:32;;;;;;;49.38;31.50;;;;;;;2.22;100.00;103153.94;10107268;28;20078;-66
2023/02/10 03:57:28;;;;;;;51.33;34.20;;;;;;;2.22;100.00;103148.53;10105188;28;20416;-64
2023/02/10 04:02:25;;;;;;;53.22;33.70;;;;;;;2.22;100.00;103156.63;10096504;28;20047;-64
2023/02/10 04:07:21;;;;;;;47.15;32.35;;;;;;;2.20;100.00;103166.78;10100848;28;20043;-64
2023/02/10 04:12:18;;;;;;;51.83;32.20;;;;;;;2.30;100.00;103169.13;10093459;28;20066;-64
2023/02/10 04:17:14;;;;;;;51.97;33.03;;;;;;;2.31;100.00;103173.50;10099261;28;20043;-64
2023/02/10 04:22:11;;;;;;;51.47;31.00;;;;;;;2.30;100.00;103175.38;10101307;28;20070;-65
2023/02/10 04:27:07;;;;;;;49.53;32.33;;;;;;;2.31;100.00;103160.00;10107291;28;20057;-66
2023/02/10 04:32:04;;;;;;;48.50;30.63;;;;;;;2.33;100.00;103168.72;10091923;28;20043;-64
2023/02/10 04:37:00;;;;;;;53.08;33.00;;;;;;;2.33;100.00;103176.00;10107345;28;20145;-66
2023/02/10 04:41:57;;;;;;;43.00;30.40;;;;;;;2.34;100.00;103183.03;10102633;28;20570;-66
2023/02/10 04:46:53;;;;;;;45.05;31.83;;;;;;;2.38;100.00;103173.50;10097057;28;20054;-66
2023/02/10 04:51:50;;;;;;;52.88;34.30;;;;;;;2.33;100.00;103173.28;10106415;28;20042;-65
2023/02/10 04:56:46;;;;;;;51.03;33.35;;;;;;;2.29;100.00;103176.38;10102959;28;20142;-64
2023/02/10 05:01:43;;;;;;;49.83;33.00;;;;;;;2.22;100.00;103183.63;10102804;28;20062;-64
2023/02/10 05:06:39;;;;;;;54.05;32.45;;;;;;;2.30;100.00;103194.25;10092345;28;20051;-64
2023/02/10 05:11:36;;;;;;;49.72;32.05;;;;;;;2.28;100.00;103201.72;10098867;28;20055;-66
2023/02/10 05:16:32;;;;;;;47.47;31.42;;;;;;;2.25;100.00;103196.75;10096747;28;20395;-65
2023/02/10 05:21:29;;;;;;;48.58;32.15;;;;;;;2.27;100.00;103216.25;10107826;28;20121;-65
2023/02/10 05:26:25;;;;;;;44.63;32.55;;;;;;;2.31;100.00;103224.78;10103252;28;20082;-66
2023/02/10 05:31:22;;;;;;;54.95;33.08;;;;;;;2.30;100.00;103229.34;10090993;28;20142;-65
2023/02/10 05:36:19;;;;;;;47.85;32.85;;;;;;;2.35;100.00;103230.63;10101262;28;20050;-65
2023/02/10 05:41:16;;;;;;;54.13;33.13;;;;;;;2.39;100.00;103229.16;10093934;28;20097;-65
2023/02/10 05:46:13;;;;;;;46.70;30.48;;;;;;;2.44;100.00;103232.13;10090703;28;20425;-65
2023/02/10 05:51:09;;;;;;;50.97;35.15;;;;;;;2.43;100.00;103222.34;10097300;28;20513;-66
2023/02/10 05:56:06;;;;;;;46.92;30.40;;;;;;;2.51;100.00;103227.56;10105310;28;20070;-66
2023/02/10 06:01:07;;;;;;;40.40;29.92;;;;;;;2.44;100.00;103227.56;10110802;28;20050;-66
2023/02/10 06:06:04;;;;;;;53.10;32.28;;;;;;;2.48;100.00;103234.22;10104281;28;20059;-65
2023/02/10 06:11:00;;;;;;;60.08;34.15;;;;;;;2.44;100.00;103232.13;10098230;28;21371;-67
2023/02/10 06:15:57;;;;;;;58.50;33.13;;;;;;;2.40;100.00;103230.84;10104271;28;20047;-65
2023/02/10 06:20:54;;;;;;;50.83;30.48;;;;;;;2.39;100.00;103240.81;10103222;28;20134;-66
2023/02/10 06:25:54;;;;;;;56.80;31.27;;;;;;;2.50;100.00;103247.50;10095288;28;20463;-67
2023/02/10 06:30:50;;;;;;;51.38;32.25;;;;;;;2.44;100.00;103245.63;10103297;28;20085;-67
2023/02/10 06:35:47;;;;;;;49.78;33.38;;;;;;;2.37;100.00;103267.19;10098490;28;20043;-67
2023/02/10 06:40:44;;;;;;;51.58;32.20;;;;;;;2.36;100.00;103256.59;10090219;28;20051;-67
2023/02/10 06:45:40;;;;;;;43.55;31.25;;;;;;;2.39;100.00;103264.28;10096178;28;20043;-67
2023/02/10 06:50:38;;;;;;;52.17;32.55;;;;;;;2.47;100.00;103269.53;10101537;28;20045;-67
2023/02/10 06:55:34;;;;;;;46.92;32.95;;;;;;;2.44;100.00;103276.16;10100342;28;20138;-67
2023/02/10 07:00:34;;;;;;;56.50;34.65;;;;;;;2.42;100.00;103277.41;10094761;28;20051;-67
2023/02/10 07:05:31;;;;;;;51.15;34.38;;;;;;;2.45;100.00;103277.81;10086256;28;20097;-67
2023/02/10 07:10:27;;;;;;;47.92;31.92;;;;;;;2.44;100.00;103291.53;10092106;28;20051;-67
2023/02/10 07:15:24;;;;;;;40.63;31.42;;;;;;;2.48;100.00;103295.47;10090471;28;20654;-67
2023/02/10 07:20:21;;;;;;;51.67;33.20;;;;;;;2.48;100.00;103300.88;10097416;28;20063;-68
2023/02/10 07:25:18;;;;;;;54.95;34.80;;;;;;;2.54;100.00;103310.88;10102120;28;20482;-67
2023/02/10 07:30:15;;;;;;;51.33;35.67;;;;;;;2.55;100.00;103312.53;10102506;28;20089;-68
2023/02/10 07:35:11;;;;;;;55.95;35.20;;;;;;;2.50;100.00;103296.13;10098920;28;20062;-67
2023/02/10 07:40:08;;;;;;;50.58;36.42;;;;;;;2.52;100.00;103294.06;10094496;28;20043;-67
2023/02/10 07:45:05;;;;;;;64.43;38.17;;;;;;;2.53;100.00;103311.94;10088501;28;20569;-67
2023/02/10 07:50:03;;;;;;;53.30;35.53;;;;;;;2.59;100.00;103318.41;10093163;28;20409;-67
2023/02/10 07:55:02;;;;;;;52.45;36.35;;;;;;;2.68;100.00;103315.31;10097352;28;20050;-68
2023/02/10 07:59:58;;;;;;;49.72;34.88;;;;;;;2.79;100.00;103310.38;10102071;28;20082;-67
2023/02/10 08:04:55;;;;;;;50.92;33.95;;;;;;;2.70;100.00;103315.94;10096152;28;20078;-67
2023/02/10 08:09:51;;;;;;;51.15;34.55;;;;;;;2.80;100.00;103314.75;10096666;28;20043;-67
2023/02/10 08:14:48;;;;;;;48.63;33.17;;;;;;;2.90;100.00;103312.47;10096516;28;20051;-67
2023/02/10 08:19:44;;;;;;;57.17;33.60;;;;;;;2.92;100.00;103316.69;10095296;28;20707;-67
2023/02/10 08:24:42;;;;;;;54.20;32.35;;;;;;;3.00;100.00;103318.34;10093995;28;20051;-67
2023/02/10 08:29:39;;;;;;;58.90;35.28;;;;;;;3.05;100.00;103321.28;10088761;28;20105;-67
2023/02/10 08:34:36;;;;;;;49.33;33.83;;;;;;;3.11;100.00;103317.78;10101094;28;20580;-66
2023/02/10 08:39:33;;;;;;;46.55;31.55;;;;;;;3.12;100.00;103322.13;10092888;28;20053;-69
2023/02/10 08:44:29;;;;;;;56.45;32.50;;;;;;;3.19;100.00;103311.34;10081797;28;20143;-68
2023/02/10 08:49:27;;;;;;;69.95;36.92;;;;;;;3.15;100.00;103305.50;10083197;28;20521;-68
2023/02/10 08:54:23;;;;;;;47.10;32.25;;;;;;;3.33;100.00;103312.19;10095496;28;20055;-68
2023/02/10 08:59:20;;;;;;;53.65;32.13;;;;;;;3.40;100.00;103317.63;10096526;28;20469;-69
2023/02/10 09:04:17;;;;;;;58.28;32.55;;;;;;;3.29;100.00;103333.38;10105671;28;20676;-69
2023/02/10 09:09:22;;;;;;;56.10;32.78;;;;;;;3.22;100.00;103337.13;10097767;28;20047;-68
2023/02/10 09:14:18;;;;;;;61.45;33.03;;;;;;;3.25;100.00;103325.88;10105190;28;20101;-69
2023/02/10 09:19:15;;;;;;;60.28;32.60;;;;;;;3.35;100.00;103337.16;10100024;28;20038;-69
2023/02/10 09:24:11;;;;;;;63.65;33.13;;;;;;;3.25;100.00;103342.13;10105370;28;20836;-69
2023/02/10 09:29:07;;;;;;;53.25;34.67;;;;;;;3.41;100.00;103340.91;10106512;28;20137;-68
2023/02/10 09:34:04;;;;;;;50.90;34.35;;;;;;;3.24;100.00;103345.88;10102479;28;20042;-69
2023/02/10 09:39:01;;;;;;;49.13;31.95;;;;;;;3.36;100.00;103345.09;10106063;28;20077;-69
2023/02/10 09:44:15;;;;;;;53.17;31.15;;;;;;;3.27;100.00;103346.31;10106556;28;20054;-68
2023/02/10 09:49:27;;;;;;;66.75;35.40;;;;;;;3.22;100.00;103342.53;10104033;28;20054;-68
2023/02/10 09:54:28;;;;;;;63.65;34.33;;;;;;;3.25;100.00;103361.03;10103472;28;20522;-68
2023/02/10 09:59:26;;;;;;;58.70;32.03;;;;;;;3.34;100.00;103346.28;10095163;28;20063;-67
2023/02/10 10:04:23;;;;;;;56.72;31.83;;;;;;;3.43;100.00;103345.06;10105946;28;20559;-68
2023/02/10 10:09:42;;;;;;;49.83;32.13;;;;;;;3.55;100.00;103348.00;10096703;28;20075;-68
2023/02/10 10:14:41;;;;;;;51.28;31.83;;;;;;;3.60;100.00;103345.53;10080375;28;20055;-68
2023/02/10 10:20:00;;;;;;;59.05;29.60;;;;;;;3.79;100.00;103349.28;10085049;28;20498;-68
2023/02/10 10:25:42;;;;;;;44.92;28.63;;;;;;;3.70;100.00;103335.13;10090434;28;20149;-68
2023/02/10 10:30:47;;;;;;;47.80;29.85;;;;;;;3.77;100.00;103343.25;10089082;28;20047;-67
2023/02/10 10:35:44;;;;;;;48.97;29.92;;;;;;;3.85;100.00;103350.31;10103851;28;20042;-67
2023/02/10 10:40:45;;;;;;;55.97;30.58;;;;;;;3.89;100.00;103352.41;10085568;28;20047;-68
2023/02/10 10:45:49;;;;;;;56.05;31.15;;;;;;;3.80;100.00;103351.75;10100910;28;20047;-68
2023/02/10 10:50:49;;;;;;;47.33;28.63;;;;;;;3.86;100.00;103355.53;10097217;28;20130;-67
2023/02/10 10:55:51;;;;;;;53.08;29.75;;;;;;;3.97;100.00;103346.78;10102094;28;20086;-67
2023/02/10 11:00:59;;;;;;;46.40;29.13;;;;;;;4.05;100.00;103332.19;10092125;28;20043;-67
2023/02/10 11:06:11;;;;;;;41.65;27.23;;;;;;;4.21;100.00;103334.47;10096660;28;20146;-67
2023/02/10 11:11:14;;;;;;;44.93;29.23;;;;;;;4.33;100.00;103329.22;10095112;28;20669;-68
2023/02/10 11:16:41;;;;;;;48.72;29.02;;;;;;;4.27;100.00;103321.97;10092610;28;20082;-68
2023/02/10 11:21:42;;;;;;;37.40;25.75;;;;;;;4.63;100.00;103323.31;10100147;28;20131;-68
2023/02/10 11:26:39;;;;;;;37.75;24.63;;;;;;;4.63;100.00;103307.06;10104065;28;20481;-68
2023/02/10 11:31:37;;;;;;;31.70;22.77;;;;;;;5.02;100.00;103303.34;10100081;28;20432;-68
2023/02/10 11:36:37;;;;;;;40.70;25.42;;;;;;;5.24;100.00;103293.00;10097547;28;20501;-66
2023/02/10 11:41:34;;;;;;;47.50;22.50;;;;;;;5.47;100.00;103280.72;10097228;28;20059;-68
2023/02/10 11:46:31;;;;;;;40.55;22.95;;;;;;;5.63;100.00;103263.88;10091199;28;20043;-68
2023/02/10 11:51:29;;;;;;;33.90;19.67;;;;;;;5.82;100.00;103261.19;10100685;28;20532;-68
2023/02/10 12:02:42;;;;;;;36.40;19.80;;;;;;;6.01;100.00;103243.94;10090165;28;20125;-66
2023/02/10 12:07:50;;;;;;;42.70;21.45;;;;;;;6.02;100.00;103240.13;10092445;28;20057;-66
2023/02/10 12:13:12;;;;;;;31.25;17.63;;;;;;;6.11;100.00;103236.06;10090502;28;20657;-66
2023/02/10 12:18:17;;;;;;;29.27;16.45;;;;;;;6.02;100.00;103223.84;10084146;28;20074;-66
2023/02/10 12:23:16;;;;;;;29.77;15.90;;;;;;;6.19;100.00;103220.53;10098199;28;20587;-66
2023/02/10 12:28:31;;;;;;;31.65;15.48;;;;;;;6.46;100.00;103212.88;10093501;28;20062;-67
2023/02/10 12:34:05;;;;;;;30.42;15.27;;;;;;;6.52;100.00;103204.66;10101774;28;20105;-66
2023/02/10 12:39:16;;;;;;;29.08;14.50;;;;;;;6.61;100.00;103196.16;10087574;28;20515;-65
2023/02/10 12:44:33;;;;;;;26.73;12.88;;;;;;;6.69;100.00;103180.34;10086254;28;20114;-66
2023/02/10 12:49:58;;;;;;;24.38;13.43;;;;;;;6.75;100.00;103173.16;10100292;28;20130;-65
2023/02/10 12:55:02;;;;;;;26.60;14.50;;;;;;;6.59;100.00;103162.94;10081331;28;20043;-65
2023/02/10 13:00:19;;;;;;;25.88;13.45;;;;;;;6.58;100.00;103162.13;10088211;28;20316;-66
2023/02/10 13:05:21;;;;;;;26.25;13.45;;;;;;;7.14;100.00;103149.94;10102699;28;20078;-65
2023/02/10 13:10:29;;;;;;;;;;;;;;;8.28;100.00;103147.78;10099631;28;20055;-66
2023/02/10 13:15:35;;;;;;;22.40;12.45;;;;;;;7.58;100.00;103150.41;10090786;28;20304;-67
2023/02/10 13:20:44;;;;;;;15.35;11.70;;;;;;;7.59;100.00;103146.66;10094395;28;20047;-66
2023/02/10 13:25:49;;;;;;;20.27;12.50;;;;;;;7.32;100.00;103140.84;10098782;28;20055;-66
2023/02/10 13:30:55;;;;;;;22.13;12.23;;;;;;;7.36;100.00;103142.03;10096700;28;20472;-66
2023/02/10 13:35:52;;;;;;;20.50;11.63;;;;;;;7.55;100.00;103139.19;10095524;28;20078;-65
2023/02/10 13:40:52;;;;;;;19.27;13.60;;;;;;;7.32;100.00;103135.41;10091890;28;20050;-66
2023/02/10 13:45:51;;;;;;;25.30;12.88;;;;;;;7.28;100.00;103123.31;10099389;28;20051;-66
2023/02/10 13:50:52;;;;;;;31.33;13.82;;;;;;;7.10;100.00;103105.25;10103177;28;20425;-66
2023/02/10 13:55:49;;;;;;;22.67;13.70;;;;;;;7.24;100.00;103105.84;10099189;28;20046;-66
2023/02/10 14:00:51;;;;;;;25.10;13.90;;;;;;;7.10;100.00;103105.25;10101504;28;20070;-65
2023/02/10 14:06:07;;;;;;;28.48;14.18;;;;;;;6.81;100.00;103096.09;10100136;28;20043;-65
2023/02/10 14:11:25;;;;;;;20.20;13.25;;;;;;;6.71;100.00;103106.72;10101614;28;20055;-66
2023/02/10 14:16:21;;;;;;;22.85;13.10;;;;;;;6.59;100.00;103105.84;10098062;28;20066;-66
2023/02/10 14:21:18;;;;;;;20.20;13.07;;;;;;;6.55;100.00;103112.84;10096501;28;20055;-65
2023/02/10 14:26:19;;;;;;;23.35;14.00;;;;;;;6.45;100.00;103100.63;10107155;28;20061;-65
2023/02/10 14:31:38;;;;;;;19.17;13.63;;;;;;;6.50;100.00;103100.75;10109669;28;20078;-65
2023/02/10 14:36:36;;;;;;;27.80;13.15;;;;;;;6.37;100.00;103095.50;10099642;28;20538;-65
2023/02/10 14:41:33;;;;;;;23.45;12.82;;;;;;;6.34;100.00;103095.97;10090701;28;20462;-65
2023/02/10 14:46:32;;;;;;;17.13;13.05;;;;;;;6.24;100.00;103087.53;10092742;28;20114;-66
2023/02/10 14:51:29;;;;;;;26.58;14.43;;;;;;;6.50;100.00;103078.19;10097928;28;20058;-65
2023/02/10 14:56:27;;;;;;;23.38;12.70;;;;;;;6.68;100.00;103082.69;10099520;28;20557;-66
2023/02/10 15:01:26;;;;;;;18.80;12.73;;;;;;;6.27;100.00;103051.78;10083275;28;20655;-66
2023/02/10 15:06:25;;;;;;;25.65;13.88;;;;;;;6.17;100.00;103056.94;10083541;28;20078;-66
2023/02/10 15:12:11;;;;;;;18.90;13.25;;;;;;;6.03;100.00;103067.97;10104352;28;20047;-66
2023/02/10 15:17:05;;;;;;;21.83;13.70;;;;;;;6.04;100.00;103058.78;10091290;28;20509;-66
2023/02/10 15:22:04;;;;;;;21.20;13.73;;;;;;;6.00;100.00;103068.44;10098708;28;20062;-66
2023/02/10 15:27:21;;;;;;;22.13;14.90;;;;;;;5.98;100.00;103040.69;10100107;28;20485;-65
2023/02/10 15:32:21;;;;;;;22.23;14.05;;;;;;;5.83;100.00;103035.63;10111870;28;20129;-65
2023/02/10 15:37:20;;;;;;;22.15;14.00;;;;;;;5.79;100.00;103045.28;10111497;28;20059;-65
2023/02/10 15:42:22;;;;;;;23.77;13.88;;;;;;;5.77;100.00;103052.00;10094897;28;20557;-65
2023/02/10 15:47:24;;;;;;;24.85;14.50;;;;;;;5.65;100.00;103060.09;10099410;28;20046;-65
2023/02/10 15:52:30;;;;;;;25.50;16.23;;;;;;;5.67;100.00;103053.38;10092677;28;20129;-66
2023/02/10 15:57:27;;;;;;;25.50;16.13;;;;;;;5.62;100.00;103050.53;10103985;28;20565;-66
2023/02/10 16:02:25;;;;;;;26.95;15.75;;;;;;;5.53;100.00;103073.59;10101110;28;20051;-66
2023/02/10 16:07:29;;;;;;;31.08;18.10;;;;;;;5.49;100.00;103083.22;10099673;28;20113;-66
2023/02/10 16:12:25;;;;;;;30.77;17.23;;;;;;;5.54;100.00;103074.41;10102922;28;20090;-66
2023/02/10 16:17:25;;;;;;;26.27;16.77;;;;;;;5.43;100.00;103073.25;10097265;28;20139;-66
2023/02/10 16:22:22;;;;;;;32.80;16.92;;;;;;;5.38;100.00;103059.56;10093118;28;20074;-66
2023/02/10 16:27:18;;;;;;;31.05;20.05;;;;;;;5.32;100.00;103045.03;10091245;28;20065;-66
2023/02/10 16:32:15;;;;;;;33.15;17.58;;;;;;;5.41;100.00;103042.84;10107071;28;20528;-66
2023/02/10 16:37:18;;;;;;;29.60;18.27;;;;;;;5.37;100.00;103047.88;10095871;28;20579;-66
2023/02/10 16:42:15;;;;;;;30.60;19.25;;;;;;;5.37;100.00;103052.47;10096853;28;20054;-66
2023/02/10 16:47:15;;;;;;;29.15;18.83;;;;;;;5.37;100.00;103053.31;10100002;28;20042;-66
2023/02/10 16:52:12;;;;;;;33.45;19.02;;;;;;;5.38;100.00;103048.69;10097718;28;20503;-67
2023/02/10 16:57:10;;;;;;;31.13;18.45;;;;;;;5.40;100.00;103030.31;10093906;28;20087;-66
2023/02/10 17:02:06;;;;;;;33.58;19.73;;;;;;;5.38;100.00;103035.97;10100111;28;20141;-68
2023/02/10 17:07:02;;;;;;;34.58;20.63;;;;;;;5.25;100.00;103017.97;10096389;28;20049;-66
2023/02/10 17:11:59;;;;;;;27.02;18.55;;;;;;;5.21;100.00;103026.78;10092278;28;20648;-66
2023/02/10 17:16:56;;;;;;;24.80;17.08;;;;;;;5.17;100.00;103029.09;10093099;28;20684;-66
2023/02/10 17:21:53;;;;;;;26.48;16.25;;;;;;;5.16;100.00;103030.16;10089043;28;20046;-67
2023/02/10 17:26:51;;;;;;;26.77;17.88;;;;;;;5.20;100.00;103036.81;10094512;28;20520;-66
2023/02/10 17:31:47;;;;;;;31.80;17.17;;;;;;;5.19;100.00;103040.53;10107057;28;21250;-66
2023/02/10 17:36:45;;;;;;;28.38;19.55;;;;;;;5.22;100.00;103045.53;10102016;28;20572;-66
2023/02/10 17:41:41;;;;;;;23.73;16.65;;;;;;;5.30;100.00;103046.31;10100167;28;20067;-65
2023/02/10 17:46:38;;;;;;;27.85;17.35;;;;;;;5.28;100.00;103035.66;10098684;28;20149;-65
2023/02/10 17:51:34;;;;;;;26.27;17.77;;;;;;;5.23;100.00;103020.06;10096502;28;20050;-66
2023/02/10 17:56:31;;;;;;;28.23;19.10;;;;;;;5.20;100.00;103020.53;10102519;28;20081;-65
2023/02/10 18:01:33;;;;;;;26.20;16.52;;;;;;;5.10;100.00;103020.19;10098998;28;20055;-66
2023/02/10 18:06:29;;;;;;;32.53;18.80;;;;;;;4.97;100.00;103002.19;10094089;28;20125;-65
2023/02/10 18:11:30;;;;;;;30.30;18.73;;;;;;;4.89;100.00;103001.66;10094686;28;20055;-66
2023/02/10 18:16:27;;;;;;;27.92;17.20;;;;;;;4.97;100.00;103009.50;10100163;28;20568;-66
2023/02/10 18:21:23;;;;;;;27.27;17.70;;;;;;;5.01;100.00;103010.69;10109246;28;20042;-65
2023/02/10 18:26:20;;;;;;;24.27;16.02;;;;;;;4.89;100.00;103001.66;10103146;28;20067;-66
2023/02/10 18:31:16;;;;;;;25.10;16.23;;;;;;;4.79;100.00;102994.84;10096264;28;20061;-67
2023/02/10 18:36:16;;;;;;;27.67;17.00;;;;;;;4.72;100.00;102996.81;10111941;28;20050;-67
2023/02/10 18:41:13;;;;;;;21.95;16.13;;;;;;;4.65;100.00;102990.63;10091329;28;20049;-67
2023/02/10 18:46:09;;;;;;;22.23;15.75;;;;;;;4.60;100.00;102982.34;10091885;28;20162;-67
2023/02/10 18:51:07;;;;;;;25.45;16.83;;;;;;;4.56;100.00;102986.53;10102043;28;20047;-66
2023/02/10 18:56:07;;;;;;;24.25;16.30;;;;;;;4.48;100.00;102978.66;10090331;28;20078;-68
2023/02/10 19:01:08;;;;;;;27.55;16.85;;;;;;;4.41;100.00;102982.28;10085528;28;20138;-67
2023/02/10 19:06:06;;;;;;;24.73;15.60;;;;;;;4.41;100.00;102985.00;10091916;28;20054;-67
2023/02/10 19:11:05;;;;;;;23.33;14.98;;;;;;;4.41;100.00;102976.88;10095078;28;20196;-67
2023/02/10 19:16:04;;;;;;;26.90;16.33;;;;;;;4.34;100.00;102959.84;10088591;28;20137;-67
2023/02/10 19:21:00;;;;;;;32.25;15.70;;;;;;;4.23;100.00;102955.13;10107290;28;20097;-67
2023/02/10 19:25:58;;;;;;;30.30;17.02;;;;;;;4.16;100.00;102952.47;10091267;28;20142;-67
2023/02/10 19:31:05;;;;;;;25.40;15.93;;;;;;;4.21;100.00;102946.41;10100682;28;20457;-67
2023/02/10 19:36:02;;;;;;;29.63;16.77;;;;;;;4.23;100.00;102944.31;10092694;28;20058;-67
2023/02/10 19:41:20;;;;;;;38.95;18.52;;;;;;;4.24;100.00;102951.34;10091024;28;20043;-67
2023/02/10 19:46:18;;;;;;;29.08;17.02;;;;;;;4.18;100.00;102941.44;10091495;28;20636;-67
2023/02/10 19:51:17;;;;;;;31.90;17.42;;;;;;;4.11;100.00;102924.41;10092310;28;20046;-67
2023/02/10 19:56:14;;;;;;;31.23;17.05;;;;;;;4.10;100.00;102918.13;10084724;28;20050;-67
2023/02/10 20:01:16;;;;;;;29.65;17.20;;;;;;;4.14;100.00;102886.06;10081151;28;20525;-67
2023/02/10 20:06:15;;;;;;;30.63;17.35;;;;;;;4.11;100.00;102897.34;10091849;28;20146;-67
2023/02/10 20:11:14;;;;;;;29.58;16.38;;;;;;;4.11;100.00;102889.22;10100247;28;20086;-67
2023/02/10 20:16:11;;;;;;;31.33;16.40;;;;;;;4.15;100.00;102896.63;10094374;28;20049;-67
2023/02/10 20:21:09;;;;;;;26.52;15.90;;;;;;;4.20;100.00;102896.84;10095243;28;20128;-67
2023/02/10 20:26:07;;;;;;;34.55;18.10;;;;;;;4.16;100.00;102909.16;10095816;28;20078;-67
2023/02/10 20:31:05;;;;;;;35.20;19.33;;;;;;;4.14;100.00;102896.88;10094838;28;20569;-66
2023/02/10 20:36:04;;;;;;;31.45;16.90;;;;;;;4.21;100.00;102903.06;10100002;28;20069;-67
2023/02/10 20:41:06;;;;;;;35.00;19.27;;;;;;;4.24;100.00;102913.44;10096188;28;20084;-67
2023/02/10 20:46:06;;;;;;;38.00;19.05;;;;;;;4.24;100.00;102913.44;10094478;28;20058;-67
2023/02/10 20:51:06;;;;;;;46.97;18.83;;;;;;;4.28;100.00;102903.84;10092988;28;20047;-67
2023/02/10 20:56:03;;;;;;;38.90;20.35;;;;;;;4.28;100.00;102903.84;10083207;28;20143;-67
2023/02/10 21:01:02;;;;;;;34.67;19.58;;;;;;;4.30;100.00;102909.03;10108430;28;20077;-67
2023/02/10 21:06:12;;;;;;;36.13;20.02;;;;;;;4.35;100.00;102910.03;10103103;28;20043;-67
2023/02/10 21:11:11;;;;;;;38.13;20.73;;;;;;;4.39;100.00;102911.25;10095910;28;20039;-66
2023/02/10 21:16:10;;;;;;;40.53;21.00;;;;;;;4.44;100.00;102907.88;10100745;28;20051;-65
2023/02/10 21:21:08;;;;;;;35.88;20.35;;;;;;;4.49;100.00;102905.31;10103750;28;20051;-67
2023/02/10 21:26:06;;;;;;;41.90;22.80;;;;;;;4.41;100.00;102876.63;10090202;28;20106;-66
2023/02/10 21:31:15;;;;;;;38.55;21.67;;;;;;;4.48;100.00;102886.56;10100452;28;20471;-67
2023/02/10 21:36:19;;;;;;;43.70;23.65;;;;;;;4.47;100.00;102874.09;10094524;28;20073;-67
2023/02/10 21:46:32;;;;;;;46.13;23.15;;;;;;;4.48;100.00;102864.88;10095407;28;20043;-66
2023/02/10 21:51:29;;;;;;;49.70;25.42;;;;;;;4.48;100.00;102867.59;10099586;28;20059;-67
2023/02/10 21:56:27;;;;;;;46.55;25.40;;;;;;;4.45;100.00;102859.94;10110082;28;20137;-67
2023/02/10 22:01:24;;;;;;;54.63;30.23;;;;;;;4.45;100.00;102857.22;10101046;28;20106;-67
2023/02/10 22:06:20;;;;;;;42.03;25.65;;;;;;;4.46;100.00;102845.34;10102072;28;20055;-67
2023/02/10 22:11:18;;;;;;;37.65;24.80;;;;;;;4.41;100.00;102859.56;10102318;28;20394;-67
2023/02/10 22:16:16;;;;;;;46.60;26.33;;;;;;;4.38;100.00;102828.31;10101543;28;20057;-67
2023/02/10 22:21:18;;;;;;;51.83;28.63;;;;;;;4.41;100.00;102811.63;10093568;28;20058;-67
2023/02/10 22:26:17;;;;;;;47.92;27.33;;;;;;;4.38;100.00;102817.47;10097224;28;20043;-67
2023/02/10 22:31:17;;;;;;;48.95;26.95;;;;;;;4.39;100.00;102800.19;10094911;28;20051;-66
2023/02/10 22:36:13;;;;;;;49.22;30.30;;;;;;;4.39;100.00;102786.66;10115282;28;20051;-66
2023/02/10 22:41:16;;;;;;;52.95;28.17;;;;;;;4.38;100.00;102787.69;10102803;28;20043;-67